CheckWX is a tool to help pilots better visualize weather data.  It is not intended as a substitute for an official pre-flight weather briefing.

15:03:22 UTC

KCCB METAR
Cable Airport
Upland, California, USA
Current

28 mins ago

KCCB 231435Z AUTO 08005KT 10SM BKN036 OVC043 11/08 A2990 RMK AO2
Observed
May-23 @ 14:35 UTC
Wind
  • 080° at 5 KTS
Visibility
10 SM
Flight Rules
VFR
Cloud Levels
  • Broken at 3,600' AGL
  • Overcast at 4,300' AGL
Temperature
11°C / 52°F
Dewpoint
C / 46°F
Humidity
82%
Altimeter
29.9" Hg
Pressure
1012.52 hPa
Previous

48 mins ago

KCCB 231415Z AUTO 09005KT 10SM SCT029 OVC036 11/08 A2990 RMK AO2
Observed
May-23 @ 14:15 UTC
Wind
  • 090° at 5 KTS
Visibility
10 SM
Flight Rules
VFR
Cloud Levels
  • Scattered at 2,900' AGL
  • Overcast at 3,600' AGL
Temperature
11°C / 52°F
Dewpoint
C / 46°F
Humidity
82%
Altimeter
29.9" Hg
Pressure
1012.52 hPa
Previous

1 hour ago

KCCB 231355Z AUTO 11005KT 10SM OVC027 11/08 A2989 RMK AO2
Observed
May-23 @ 13:55 UTC
Wind
  • 110° at 5 KTS
Visibility
10 SM
Flight Rules
MVFR
Cloud Levels
  • Overcast at 2,700' AGL
Temperature
11°C / 52°F
Dewpoint
C / 46°F
Humidity
82%
Altimeter
29.89" Hg
Pressure
1012.22 hPa